sensor_id;sensor_type;location;lat;lon;timestamp;P1;durP1;ratioP1;P2;durP2;ratioP2
84500;SDS011;74725;44.210;17.906;2024-01-15T05:04:41;105.30;;;49.70;;
84500;SDS011;74725;44.210;17.906;2024-01-15T06:33:38;155.32;;;75.30;;
84500;SDS011;74725;44.210;17.906;2024-01-15T06:36:04;133.38;;;61.90;;
84500;SDS011;74725;44.210;17.906;2024-01-15T06:38:30;131.00;;;62.60;;
84500;SDS011;74725;44.210;17.906;2024-01-15T06:40:56;120.68;;;58.00;;
84500;SDS011;74725;44.210;17.906;2024-01-15T06:43:22;120.30;;;59.97;;
84500;SDS011;74725;44.210;17.906;2024-01-15T06:45:47;129.00;;;62.00;;
84500;SDS011;74725;44.210;17.906;2024-01-15T06:48:13;137.80;;;64.90;;
84500;SDS011;74725;44.210;17.906;2024-01-15T06:50:41;208.10;;;91.50;;
84500;SDS011;74725;44.210;17.906;2024-01-15T06:53:10;247.43;;;102.35;;
84500;SDS011;74725;44.210;17.906;2024-01-15T06:55:36;170.18;;;77.78;;
84500;SDS011;74725;44.210;17.906;2024-01-15T06:58:25;126.25;;;60.17;;
84500;SDS011;74725;44.210;17.906;2024-01-15T07:01:04;118.78;;;59.17;;
84500;SDS011;74725;44.210;17.906;2024-01-15T07:03:30;173.35;;;83.80;;
84500;SDS011;74725;44.210;17.906;2024-01-15T07:05:56;194.75;;;93.07;;
84500;SDS011;74725;44.210;17.906;2024-01-15T07:08:22;187.18;;;88.18;;
84500;SDS011;74725;44.210;17.906;2024-01-15T07:10:47;162.70;;;81.90;;
84500;SDS011;74725;44.210;17.906;2024-01-15T07:13:13;161.65;;;78.15;;
84500;SDS011;74725;44.210;17.906;2024-01-15T07:15:38;162.95;;;77.90;;
84500;SDS011;74725;44.210;17.906;2024-01-15T07:18:04;145.00;;;74.75;;
84500;SDS011;74725;44.210;17.906;2024-01-15T07:20:30;150.35;;;74.70;;
84500;SDS011;74725;44.210;17.906;2024-01-15T07:22:56;142.32;;;69.22;;
84500;SDS011;74725;44.210;17.906;2024-01-15T07:25:22;128.55;;;62.35;;
84500;SDS011;74725;44.210;17.906;2024-01-15T07:27:47;125.10;;;63.55;;
84500;SDS011;74725;44.210;17.906;2024-01-15T07:30:14;105.03;;;54.05;;
84500;SDS011;74725;44.210;17.906;2024-01-15T07:32:40;115.25;;;58.58;;
84500;SDS011;74725;44.210;17.906;2024-01-15T07:35:08;150.95;;;72.93;;
84500;SDS011;74725;44.210;17.906;2024-01-15T07:37:33;117.63;;;62.22;;
84500;SDS011;74725;44.210;17.906;2024-01-15T07:39:59;125.00;;;61.67;;
84500;SDS011;74725;44.210;17.906;2024-01-15T07:42:25;104.90;;;54.72;;
84500;SDS011;74725;44.210;17.906;2024-01-15T07:44:51;131.57;;;63.28;;
84500;SDS011;74725;44.210;17.906;2024-01-15T07:47:16;169.88;;;81.65;;
84500;SDS011;74725;44.210;17.906;2024-01-15T07:49:42;143.27;;;71.57;;
84500;SDS011;74725;44.210;17.906;2024-01-15T07:52:08;119.35;;;62.60;;
84500;SDS011;74725;44.210;17.906;2024-01-15T07:54:33;138.10;;;69.88;;
84500;SDS011;74725;44.210;17.906;2024-01-15T07:57:00;135.02;;;69.18;;
84500;SDS011;74725;44.210;17.906;2024-01-15T07:59:28;141.27;;;73.55;;
84500;SDS011;74725;44.210;17.906;2024-01-15T08:01:54;150.63;;;73.22;;
84500;SDS011;74725;44.210;17.906;2024-01-15T08:04:19;150.55;;;73.70;;
84500;SDS011;74725;44.210;17.906;2024-01-15T08:06:45;137.68;;;69.18;;
84500;SDS011;74725;44.210;17.906;2024-01-15T08:09:11;140.00;;;70.70;;
84500;SDS011;74725;44.210;17.906;2024-01-15T08:11:39;133.13;;;71.13;;
84500;SDS011;74725;44.210;17.906;2024-01-15T08:14:08;125.35;;;65.35;;
84500;SDS011;74725;44.210;17.906;2024-01-15T08:16:37;125.97;;;65.45;;
84500;SDS011;74725;44.210;17.906;2024-01-15T08:19:03;116.05;;;61.67;;
84500;SDS011;74725;44.210;17.906;2024-01-15T08:21:29;116.30;;;62.05;;
84500;SDS011;74725;44.210;17.906;2024-01-15T08:24:02;104.73;;;54.97;;
84500;SDS011;74725;44.210;17.906;2024-01-15T08:26:28;100.55;;;51.83;;
84500;SDS011;74725;44.210;17.906;2024-01-15T08:28:54;100.65;;;53.47;;
84500;SDS011;74725;44.210;17.906;2024-01-15T08:31:20;155.55;;;78.93;;
84500;SDS011;74725;44.210;17.906;2024-01-15T08:33:47;232.13;;;120.38;;
84500;SDS011;74725;44.210;17.906;2024-01-15T08:36:13;210.90;;;106.30;;
84500;SDS011;74725;44.210;17.906;2024-01-15T08:38:38;118.40;;;61.40;;
84500;SDS011;74725;44.210;17.906;2024-01-15T08:41:04;122.72;;;61.83;;
84500;SDS011;74725;44.210;17.906;2024-01-15T08:43:30;186.70;;;92.22;;
84500;SDS011;74725;44.210;17.906;2024-01-15T08:45:56;148.80;;;72.70;;
84500;SDS011;74725;44.210;17.906;2024-01-15T08:48:22;104.57;;;56.00;;
84500;SDS011;74725;44.210;17.906;2024-01-15T08:50:48;106.40;;;54.42;;
84500;SDS011;74725;44.210;17.906;2024-01-15T08:53:14;103.78;;;52.92;;
84500;SDS011;74725;44.210;17.906;2024-01-15T08:55:40;100.07;;;53.30;;
84500;SDS011;74725;44.210;17.906;2024-01-15T08:58:09;97.20;;;51.78;;
84500;SDS011;74725;44.210;17.906;2024-01-15T09:00:35;108.05;;;53.40;;
84500;SDS011;74725;44.210;17.906;2024-01-15T09:03:01;105.78;;;53.28;;
84500;SDS011;74725;44.210;17.906;2024-01-15T09:05:27;104.85;;;54.72;;
84500;SDS011;74725;44.210;17.906;2024-01-15T09:07:53;104.88;;;52.15;;
84500;SDS011;74725;44.210;17.906;2024-01-15T09:10:19;133.45;;;68.10;;
84500;SDS011;74725;44.210;17.906;2024-01-15T09:12:45;127.57;;;66.05;;
84500;SDS011;74725;44.210;17.906;2024-01-15T09:15:11;119.40;;;60.85;;
84500;SDS011;74725;44.210;17.906;2024-01-15T09:17:38;110.00;;;55.88;;
84500;SDS011;74725;44.210;17.906;2024-01-15T09:20:04;109.55;;;58.70;;
84500;SDS011;74725;44.210;17.906;2024-01-15T09:22:31;105.13;;;54.80;;
84500;SDS011;74725;44.210;17.906;2024-01-15T09:24:56;97.55;;;53.25;;
84500;SDS011;74725;44.210;17.906;2024-01-15T09:27:23;110.57;;;56.08;;
84500;SDS011;74725;44.210;17.906;2024-01-15T09:29:51;108.03;;;57.55;;
84500;SDS011;74725;44.210;17.906;2024-01-15T09:32:17;118.80;;;59.92;;
84500;SDS011;74725;44.210;17.906;2024-01-15T09:34:43;124.55;;;60.08;;
84500;SDS011;74725;44.210;17.906;2024-01-15T09:37:23;113.53;;;56.20;;
84500;SDS011;74725;44.210;17.906;2024-01-15T09:39:48;129.90;;;62.40;;
84500;SDS011;74725;44.210;17.906;2024-01-15T09:42:15;96.47;;;52.30;;
84500;SDS011;74725;44.210;17.906;2024-01-15T09:44:41;93.47;;;50.45;;
84500;SDS011;74725;44.210;17.906;2024-01-15T09:47:07;93.78;;;50.17;;
84500;SDS011;74725;44.210;17.906;2024-01-15T09:49:33;94.32;;;50.38;;
84500;SDS011;74725;44.210;17.906;2024-01-15T09:51:59;98.38;;;52.38;;
84500;SDS011;74725;44.210;17.906;2024-01-15T09:54:27;83.63;;;46.50;;
84500;SDS011;74725;44.210;17.906;2024-01-15T09:56:53;84.50;;;48.30;;
84500;SDS011;74725;44.210;17.906;2024-01-15T09:59:20;90.88;;;49.97;;
84500;SDS011;74725;44.210;17.906;2024-01-15T10:01:50;87.35;;;48.50;;
84500;SDS011;74725;44.210;17.906;2024-01-15T10:04:16;90.82;;;49.85;;
84500;SDS011;74725;44.210;17.906;2024-01-15T10:06:45;98.53;;;53.08;;
84500;SDS011;74725;44.210;17.906;2024-01-15T10:09:14;84.00;;;48.47;;
84500;SDS011;74725;44.210;17.906;2024-01-15T10:11:43;90.63;;;50.60;;
84500;SDS011;74725;44.210;17.906;2024-01-15T10:14:12;87.80;;;51.10;;
84500;SDS011;74725;44.210;17.906;2024-01-15T10:16:41;89.85;;;50.58;;
84500;SDS011;74725;44.210;17.906;2024-01-15T10:19:08;87.85;;;49.45;;
84500;SDS011;74725;44.210;17.906;2024-01-15T10:21:34;109.32;;;54.70;;
84500;SDS011;74725;44.210;17.906;2024-01-15T10:24:00;127.13;;;61.33;;
84500;SDS011;74725;44.210;17.906;2024-01-15T10:28:52;110.73;;;55.80;;
84500;SDS011;74725;44.210;17.906;2024-01-15T10:31:18;110.80;;;58.67;;
84500;SDS011;74725;44.210;17.906;2024-01-15T10:33:48;94.82;;;52.10;;
84500;SDS011;74725;44.210;17.906;2024-01-15T10:36:14;100.00;;;54.08;;
84500;SDS011;74725;44.210;17.906;2024-01-15T10:38:41;97.05;;;55.03;;
84500;SDS011;74725;44.210;17.906;2024-01-15T10:41:08;109.22;;;60.10;;
84500;SDS011;74725;44.210;17.906;2024-01-15T10:43:33;105.57;;;59.85;;
84500;SDS011;74725;44.210;17.906;2024-01-15T10:45:59;106.85;;;59.10;;
84500;SDS011;74725;44.210;17.906;2024-01-15T10:48:25;116.72;;;61.35;;
84500;SDS011;74725;44.210;17.906;2024-01-15T10:50:53;102.88;;;57.00;;
84500;SDS011;74725;44.210;17.906;2024-01-15T10:53:19;99.72;;;56.58;;
84500;SDS011;74725;44.210;17.906;2024-01-15T10:55:46;84.43;;;49.95;;
84500;SDS011;74725;44.210;17.906;2024-01-15T10:58:14;88.82;;;50.38;;
84500;SDS011;74725;44.210;17.906;2024-01-15T11:00:41;84.47;;;49.42;;
84500;SDS011;74725;44.210;17.906;2024-01-15T11:03:06;82.72;;;48.50;;
84500;SDS011;74725;44.210;17.906;2024-01-15T11:05:33;87.30;;;51.20;;
84500;SDS011;74725;44.210;17.906;2024-01-15T11:08:05;87.68;;;49.28;;
84500;SDS011;74725;44.210;17.906;2024-01-15T11:18:31;102.90;;;57.20;;
84500;SDS011;74725;44.210;17.906;2024-01-15T11:23:54;93.35;;;51.50;;
84500;SDS011;74725;44.210;17.906;2024-01-15T11:26:34;85.47;;;52.00;;
84500;SDS011;74725;44.210;17.906;2024-01-15T11:34:49;98.70;;;55.30;;
84500;SDS011;74725;44.210;17.906;2024-01-15T11:37:15;98.57;;;57.17;;
84500;SDS011;74725;44.210;17.906;2024-01-15T11:39:42;104.38;;;57.97;;
84500;SDS011;74725;44.210;17.906;2024-01-15T11:42:08;102.72;;;59.60;;
84500;SDS011;74725;44.210;17.906;2024-01-15T11:44:36;111.30;;;62.08;;
84500;SDS011;74725;44.210;17.906;2024-01-15T11:52:35;124.50;;;68.63;;
84500;SDS011;74725;44.210;17.906;2024-01-15T11:55:11;176.68;;;81.07;;
84500;SDS011;74725;44.210;17.906;2024-01-15T12:00:05;109.57;;;62.35;;
84500;SDS011;74725;44.210;17.906;2024-01-15T12:02:50;106.18;;;60.75;;
84500;SDS011;74725;44.210;17.906;2024-01-15T12:05:24;103.43;;;57.38;;
84500;SDS011;74725;44.210;17.906;2024-01-15T12:07:55;110.38;;;63.13;;
84500;SDS011;74725;44.210;17.906;2024-01-15T12:10:20;119.32;;;65.65;;
84500;SDS011;74725;44.210;17.906;2024-01-15T12:12:58;106.55;;;60.83;;
84500;SDS011;74725;44.210;17.906;2024-01-15T12:15:37;114.82;;;63.78;;
84500;SDS011;74725;44.210;17.906;2024-01-15T12:18:07;99.30;;;58.03;;
84500;SDS011;74725;44.210;17.906;2024-01-15T12:20:34;90.05;;;56.47;;
84500;SDS011;74725;44.210;17.906;2024-01-15T12:23:01;94.30;;;54.67;;
84500;SDS011;74725;44.210;17.906;2024-01-15T12:25:36;84.00;;;52.22;;
84500;SDS011;74725;44.210;17.906;2024-01-15T12:28:02;81.97;;;49.15;;
84500;SDS011;74725;44.210;17.906;2024-01-15T12:30:29;79.60;;;48.47;;
84500;SDS011;74725;44.210;17.906;2024-01-15T12:32:57;85.18;;;50.17;;
84500;SDS011;74725;44.210;17.906;2024-01-15T12:35:23;82.55;;;50.53;;
84500;SDS011;74725;44.210;17.906;2024-01-15T12:37:51;85.53;;;48.05;;
84500;SDS011;74725;44.210;17.906;2024-01-15T12:40:20;86.20;;;48.50;;
84500;SDS011;74725;44.210;17.906;2024-01-15T12:42:47;95.85;;;47.83;;
84500;SDS011;74725;44.210;17.906;2024-01-15T12:45:13;72.15;;;43.42;;
84500;SDS011;74725;44.210;17.906;2024-01-15T12:47:39;73.15;;;40.85;;
84500;SDS011;74725;44.210;17.906;2024-01-15T12:50:09;68.97;;;39.42;;
84500;SDS011;74725;44.210;17.906;2024-01-15T12:55:04;59.67;;;37.50;;
84500;SDS011;74725;44.210;17.906;2024-01-15T12:57:30;59.95;;;35.75;;
84500;SDS011;74725;44.210;17.906;2024-01-15T12:59:56;54.72;;;31.98;;
84500;SDS011;74725;44.210;17.906;2024-01-15T13:02:40;63.47;;;35.92;;
84500;SDS011;74725;44.210;17.906;2024-01-15T13:05:07;58.78;;;35.00;;
84500;SDS011;74725;44.210;17.906;2024-01-15T13:07:34;63.15;;;38.90;;
84500;SDS011;74725;44.210;17.906;2024-01-15T13:09:59;62.95;;;38.35;;
84500;SDS011;74725;44.210;17.906;2024-01-15T13:12:25;65.25;;;39.35;;
84500;SDS011;74725;44.210;17.906;2024-01-15T13:14:51;70.38;;;41.95;;
84500;SDS011;74725;44.210;17.906;2024-01-15T13:22:24;57.15;;;38.78;;
84500;SDS011;74725;44.210;17.906;2024-01-15T13:24:55;63.55;;;38.90;;
84500;SDS011;74725;44.210;17.906;2024-01-15T13:27:21;59.67;;;36.72;;
84500;SDS011;74725;44.210;17.906;2024-01-15T13:29:46;63.13;;;36.70;;
84500;SDS011;74725;44.210;17.906;2024-01-15T13:32:12;54.15;;;32.95;;
84500;SDS011;74725;44.210;17.906;2024-01-15T13:34:47;54.47;;;33.28;;
84500;SDS011;74725;44.210;17.906;2024-01-15T15:48:52;147.63;;;76.22;;
84500;SDS011;74725;44.210;17.906;2024-01-15T15:51:17;142.57;;;75.57;;
84500;SDS011;74725;44.210;17.906;2024-01-15T15:53:43;136.70;;;76.22;;
84500;SDS011;74725;44.210;17.906;2024-01-15T15:56:08;137.48;;;75.38;;
84500;SDS011;74725;44.210;17.906;2024-01-15T16:11:31;142.32;;;78.43;;
84500;SDS011;74725;44.210;17.906;2024-01-15T16:13:58;179.13;;;89.45;;
84500;SDS011;74725;44.210;17.906;2024-01-15T16:16:23;167.85;;;88.05;;
84500;SDS011;74725;44.210;17.906;2024-01-15T21:51:59;75.88;;;35.20;;
84500;SDS011;74725;44.210;17.906;2024-01-15T21:54:25;51.38;;;26.90;;
84500;SDS011;74725;44.210;17.906;2024-01-15T21:56:51;46.80;;;24.77;;
